createdAt,value
2019-05-07T00:00:32.932Z,98540.53
2019-05-07T00:03:03.270Z,98535.49
2019-05-07T00:05:33.153Z,98541.56
2019-05-07T00:08:03.004Z,98548.42
2019-05-07T00:10:34.560Z,98555.41
2019-05-07T00:13:03.211Z,98559.97
2019-05-07T00:15:32.849Z,98561.36
2019-05-07T00:18:03.206Z,98566.47
2019-05-07T00:20:32.702Z,98565.09
2019-05-07T00:23:02.916Z,98572.63
2019-05-07T00:25:32.802Z,98572.52
2019-05-07T00:28:02.785Z,98568.59
2019-05-07T00:30:33.157Z,98566.96
2019-05-07T00:33:02.760Z,98563.97
2019-05-07T00:35:42.884Z,98564.48
2019-05-07T00:38:13.337Z,98570.62
2019-05-07T00:40:52.338Z,98572.94
2019-05-07T00:43:22.841Z,98574.45
2019-05-07T00:45:56.497Z,98586.91
2019-05-07T00:48:23.658Z,98584.68
2019-05-07T00:50:53.830Z,98582.66
2019-05-07T00:53:23.646Z,98588.41
2019-05-07T00:55:52.675Z,98593.22
2019-05-07T00:58:26.032Z,98592.91
2019-05-07T01:00:53.163Z,98601.16
2019-05-07T01:03:22.318Z,98598.17
2019-05-07T01:05:52.672Z,98610.71
2019-05-07T01:08:22.621Z,98607.77
2019-05-07T01:10:54.115Z,98613.95
2019-05-07T01:13:23.360Z,98618.44
2019-05-07T01:15:53.146Z,98619.28
2019-05-07T01:18:23.265Z,98622.43
2019-05-07T01:20:53.322Z,98624.62
2019-05-07T01:23:22.889Z,98631.56
2019-05-07T01:25:52.673Z,98637.64
2019-05-07T01:28:22.266Z,98634.78
2019-05-07T01:30:52.893Z,98636.35
2019-05-07T01:33:25.946Z,98635.44
2019-05-07T01:36:04.981Z,98635.51
2019-05-07T01:38:34.571Z,98632.31
2019-05-07T01:41:03.202Z,98639.77
2019-05-07T01:43:34.793Z,98641.91
2019-05-07T01:46:03.438Z,98642.63
2019-05-07T01:48:32.440Z,98637.88
2019-05-07T01:51:03.307Z,98640.65
2019-05-07T01:53:32.353Z,98652.59
2019-05-07T01:56:03.075Z,98644.50
2019-05-07T01:58:33.091Z,98638.75
2019-05-07T02:01:02.740Z,98643.70
2019-05-07T02:03:42.604Z,98641.22
2019-05-07T02:06:13.258Z,98644.41
2019-05-07T02:08:53.022Z,98643.00
2019-05-07T02:11:29.492Z,98643.45
2019-05-07T02:13:58.118Z,98644.11
2019-05-07T02:16:26.742Z,98647.88
2019-05-07T02:18:55.305Z,98651.33
2019-05-07T02:21:24.001Z,98655.74
2019-05-07T02:23:52.559Z,98655.36
2019-05-07T02:26:22.525Z,98660.30
2019-05-07T02:28:54.425Z,98666.82
2019-05-07T02:31:23.485Z,98652.14
2019-05-07T02:33:54.075Z,98664.33
2019-05-07T02:36:23.677Z,98658.31
2019-05-07T02:38:54.317Z,98673.11
2019-05-07T02:41:33.086Z,98671.08
2019-05-07T02:44:04.022Z,98676.80
2019-05-07T02:46:36.065Z,98684.23
2019-05-07T02:49:04.720Z,98690.40
2019-05-07T02:51:34.858Z,98688.25
2019-05-07T02:54:05.128Z,98685.30
2019-05-07T02:56:33.761Z,98688.44
2019-05-07T02:59:04.044Z,98689.96
2019-05-07T03:01:33.509Z,98687.50
2019-05-07T03:04:03.634Z,98690.11
2019-05-07T03:06:33.908Z,98698.04
2019-05-07T03:09:03.436Z,98699.80
2019-05-07T03:11:34.066Z,98703.78
2019-05-07T03:14:03.145Z,98705.55
2019-05-07T03:16:40.088Z,98708.58
2019-05-07T03:19:04.134Z,98711.53
2019-05-07T03:21:53.991Z,98701.17
2019-05-07T03:24:43.356Z,98707.16
2019-05-07T03:27:13.809Z,98704.17
2019-05-07T03:29:44.271Z,98712.34
2019-05-07T03:32:36.787Z,98711.77
2019-05-07T03:35:19.276Z,98721.69
2019-05-07T03:37:48.123Z,98714.72
2019-05-07T03:40:16.812Z,98721.63
2019-05-07T03:42:45.373Z,98724.05
2019-05-07T03:45:15.719Z,98730.88
2019-05-07T03:47:45.839Z,98735.06
2019-05-07T03:50:14.939Z,98733.99
2019-05-07T03:52:43.676Z,98742.86
2019-05-07T03:55:14.536Z,98742.36
2019-05-07T03:57:43.900Z,98742.44
2019-05-07T04:00:13.413Z,98751.10
2019-05-07T04:02:43.697Z,98751.48
2019-05-07T04:05:13.922Z,98750.64
2019-05-07T04:07:43.439Z,98760.23
2019-05-07T04:10:14.892Z,98761.34
2019-05-07T04:12:44.217Z,98757.51
2019-05-07T04:15:14.648Z,98761.84
2019-05-07T04:17:43.493Z,98773.66
2019-05-07T04:20:13.517Z,98768.21
2019-05-07T04:22:43.303Z,98758.06
2019-05-07T04:25:17.296Z,98766.69
2019-05-07T04:27:47.423Z,98765.31
2019-05-07T04:30:16.057Z,98764.85
2019-05-07T04:32:46.190Z,98772.74
2019-05-07T04:35:24.434Z,98775.23
2019-05-07T04:37:53.337Z,98774.48
2019-05-07T04:40:24.044Z,98769.84
2019-05-07T04:42:53.884Z,98775.33
2019-05-07T04:45:23.267Z,98774.84
2019-05-07T04:47:53.800Z,98780.11
2019-05-07T04:50:38.282Z,98772.04
2019-05-07T04:52:57.003Z,98773.81
2019-05-07T04:55:25.647Z,98778.33
2019-05-07T04:57:54.255Z,98777.09
2019-05-07T05:00:23.226Z,98775.36
2019-05-07T05:03:12.651Z,98779.37
2019-05-07T05:05:43.273Z,98779.62
2019-05-07T05:08:13.157Z,98788.97
2019-05-07T05:10:43.261Z,98794.59
2019-05-07T05:13:12.882Z,98790.42
2019-05-07T05:15:43.183Z,98794.98
2019-05-07T05:18:12.734Z,98791.98
2019-05-07T05:20:49.143Z,98794.05
2019-05-07T05:23:19.414Z,98798.06
2019-05-07T05:25:48.057Z,98792.19
2019-05-07T05:28:16.694Z,98804.84
2019-05-07T05:30:47.025Z,98796.02
2019-05-07T05:33:15.666Z,98798.63
2019-05-07T05:35:44.249Z,98803.85
2019-05-07T05:38:12.976Z,98803.92
2019-05-07T05:40:43.095Z,98807.44
2019-05-07T05:43:19.612Z,98807.64
2019-05-07T05:45:49.950Z,98800.21
2019-05-07T05:48:22.377Z,98798.95
2019-05-07T05:51:09.037Z,98801.80
2019-05-07T05:53:48.183Z,98806.98
2019-05-07T05:56:27.047Z,98817.66
2019-05-07T05:59:03.056Z,98818.22
2019-05-07T06:01:36.087Z,98807.09
2019-05-07T06:04:15.452Z,98811.89
2019-05-07T06:07:10.373Z,98822.15
2019-05-07T06:09:35.689Z,98823.62
2019-05-07T06:12:06.322Z,98816.91
2019-05-07T06:14:39.337Z,98820.37
2019-05-07T06:17:13.066Z,98824.79
2019-05-07T06:19:43.495Z,98815.98
2019-05-07T06:22:22.228Z,98818.08
2019-05-07T06:24:57.767Z,98815.73
2019-05-07T06:27:26.416Z,98826.73
2019-05-07T06:29:57.724Z,98814.52
2019-05-07T06:32:26.439Z,98821.39
2019-05-07T06:34:57.877Z,98815.30
2019-05-07T06:37:26.461Z,98820.35
2019-05-07T06:40:08.355Z,98813.11
2019-05-07T06:42:54.141Z,98824.76
2019-05-07T06:45:33.255Z,98816.05
2019-05-07T06:48:02.837Z,98817.70
2019-05-07T06:50:32.686Z,98819.06
2019-05-07T06:53:02.627Z,98837.86
2019-05-07T06:55:32.390Z,98820.05
2019-05-07T06:58:02.640Z,98835.58
2019-05-07T07:00:33.346Z,98834.55
2019-05-07T07:03:03.622Z,98830.98
2019-05-07T07:05:33.851Z,98844.69
2019-05-07T07:08:07.851Z,98844.61
2019-05-07T07:10:52.146Z,98841.72
2019-05-07T07:13:22.837Z,98837.32
2019-05-07T07:15:52.242Z,98841.44
2019-05-07T07:18:23.051Z,98845.44
2019-05-07T07:20:52.428Z,98843.79
2019-05-07T07:23:22.614Z,98833.10
2019-05-07T07:25:54.343Z,98853.56
2019-05-07T07:28:26.029Z,98837.98
2019-05-07T07:31:02.389Z,98839.86
2019-05-07T07:33:32.843Z,98839.94
2019-05-07T07:36:02.507Z,98838.95
2019-05-07T07:38:35.430Z,98836.13
2019-05-07T07:41:14.461Z,98853.14
2019-05-07T07:43:42.959Z,98855.92
2019-05-07T07:46:13.109Z,98857.41
2019-05-07T07:48:43.513Z,98853.05
2019-05-07T07:51:13.765Z,98847.30
2019-05-07T07:53:42.623Z,98849.53
2019-05-07T07:56:29.175Z,98843.08
2019-05-07T07:59:05.276Z,98848.42
2019-05-07T08:01:38.154Z,98842.14
2019-05-07T08:04:12.086Z,98862.29
2019-05-07T08:06:42.020Z,98849.64
2019-05-07T08:09:12.728Z,98853.92
2019-05-07T08:11:42.552Z,98855.30
2019-05-07T08:14:14.036Z,98856.81
2019-05-07T08:16:43.049Z,98863.59
2019-05-07T08:19:21.763Z,98851.72
2019-05-07T08:21:42.308Z,98851.72
2019-05-07T08:24:12.228Z,98846.55
2019-05-07T08:26:42.828Z,98860.41
2019-05-07T08:29:11.914Z,98860.94
2019-05-07T08:31:57.525Z,98845.61
2019-05-07T08:34:31.955Z,98860.28
2019-05-07T08:37:01.888Z,98853.92
2019-05-07T08:39:32.542Z,98853.92
2019-05-07T08:42:02.080Z,98844.96
2019-05-07T08:44:32.595Z,98854.66
2019-05-07T08:49:59.729Z,98859.30
2019-05-07T08:52:28.498Z,98856.91
2019-05-07T08:54:57.271Z,98859.02
2019-05-07T08:57:25.964Z,98852.36
2019-05-07T09:00:01.111Z,98856.66
2019-05-07T09:02:25.092Z,98864.99
2019-05-07T09:04:53.738Z,98857.45
2019-05-07T09:07:25.307Z,98872.59
2019-05-07T09:09:53.939Z,98870.92
2019-05-07T09:12:23.095Z,98864.77
2019-05-07T09:14:52.981Z,98849.72
2019-05-07T09:17:23.001Z,98840.59
2019-05-07T09:19:54.707Z,98847.86
2019-05-07T09:22:22.971Z,98856.95
2019-05-07T09:24:56.539Z,98862.49
2019-05-07T09:27:32.923Z,98851.20
2019-05-07T09:30:18.341Z,98854.28
2019-05-07T09:32:52.657Z,98840.73
2019-05-07T09:35:33.416Z,98831.34
2019-05-07T09:38:08.751Z,98835.61
2019-05-07T09:40:37.604Z,98832.12
2019-05-07T09:43:06.333Z,98848.45
2019-05-07T09:45:41.893Z,98853.55
2019-05-07T09:48:12.128Z,98846.38
2019-05-07T09:50:42.763Z,98854.41
2019-05-07T09:53:14.762Z,98858.08
2019-05-07T09:55:43.499Z,98856.16
2019-05-07T09:58:12.693Z,98857.75
2019-05-07T10:00:42.473Z,98857.02
2019-05-07T10:03:19.741Z,98877.02
2019-05-07T10:05:48.502Z,98860.01
2019-05-07T10:08:17.165Z,98867.91
2019-05-07T10:10:51.262Z,98852.72
2019-05-07T10:13:26.223Z,98863.27
2019-05-07T10:15:55.157Z,98850.39
2019-05-07T10:18:23.885Z,98878.53
2019-05-07T10:20:53.578Z,98876.00
2019-05-07T10:23:23.481Z,98882.13
2019-05-07T10:25:52.784Z,98882.13
2019-05-07T10:28:22.752Z,98879.38
2019-05-07T10:30:52.112Z,98886.40
2019-05-07T10:33:26.996Z,98885.78
2019-05-07T10:35:58.352Z,98889.13
2019-05-07T10:38:30.054Z,98874.34
2019-05-07T10:40:59.412Z,98875.63
2019-05-07T10:43:28.144Z,98874.42
2019-05-07T10:46:04.829Z,98874.73
2019-05-07T10:48:38.084Z,98875.14
2019-05-07T10:51:06.801Z,98872.11
2019-05-07T10:53:35.650Z,98876.56
2019-05-07T10:56:04.486Z,98873.84
2019-05-07T10:58:34.902Z,98870.62
2019-05-07T11:01:03.826Z,98875.52
2019-05-07T11:03:32.693Z,98877.48
2019-05-07T11:06:01.343Z,98881.23
2019-05-07T11:08:32.908Z,98875.11
2019-05-07T11:11:02.948Z,98888.15
2019-05-07T11:13:32.066Z,98880.55
2019-05-07T11:16:05.298Z,98889.39
2019-05-07T11:18:47.436Z,98893.77
2019-05-07T11:21:17.933Z,98893.45
2019-05-07T11:23:46.781Z,98902.77
2019-05-07T11:26:15.515Z,98906.35
2019-05-07T11:28:44.269Z,98905.32
2019-05-07T11:31:17.439Z,98906.88
2019-05-07T11:33:47.471Z,98904.49
2019-05-07T11:36:17.838Z,98909.53
2019-05-07T11:38:46.739Z,98906.27
2019-05-07T11:41:18.175Z,98914.65
2019-05-07T11:43:53.897Z,98923.12
2019-05-07T11:46:22.206Z,98923.19
2019-05-07T11:48:58.461Z,98915.99
2019-05-07T11:51:47.166Z,98927.93
2019-05-07T11:54:17.270Z,98928.13
2019-05-07T11:56:46.029Z,98934.63
2019-05-07T11:59:22.007Z,98941.02
2019-05-07T12:01:52.811Z,98940.63
2019-05-07T12:04:24.368Z,98948.59
2019-05-07T12:06:53.007Z,98956.54
2019-05-07T12:09:21.846Z,98950.66
2019-05-07T12:11:52.059Z,98956.03
2019-05-07T12:14:28.893Z,98954.70
2019-05-07T12:16:51.136Z,98954.85
2019-05-07T12:19:19.762Z,98963.84
2019-05-07T12:21:48.409Z,98964.06
2019-05-07T12:24:17.023Z,98985.20
2019-05-07T12:26:45.734Z,98985.20
2019-05-07T12:29:14.440Z,98984.98
2019-05-07T12:31:56.720Z,98985.13
2019-05-07T12:34:27.023Z,98977.56
2019-05-07T12:36:55.707Z,98987.63
2019-05-07T12:39:24.464Z,98987.75
2019-05-07T12:41:53.240Z,98987.75
2019-05-07T12:44:22.299Z,98980.27
2019-05-07T12:46:52.503Z,98984.17
2019-05-07T12:49:22.102Z,98984.03
2019-05-07T12:51:55.373Z,98981.23
2019-05-07T12:54:34.668Z,98985.02
2019-05-07T12:57:02.600Z,98978.95
2019-05-07T12:59:32.230Z,98986.59
2019-05-07T13:02:18.034Z,98990.17
2019-05-07T13:04:36.762Z,99000.90
2019-05-07T13:07:07.364Z,99000.90
2019-05-07T13:09:36.053Z,99002.52
2019-05-07T13:12:04.850Z,99006.55
2019-05-07T13:14:33.507Z,98997.78
2019-05-07T13:17:02.850Z,99009.69
2019-05-07T13:19:33.038Z,99016.11
2019-05-07T13:22:02.430Z,99009.74
2019-05-07T13:24:32.143Z,99010.66
2019-05-07T13:27:03.098Z,99027.77
2019-05-07T13:29:32.594Z,99027.50
2019-05-07T13:32:03.939Z,99027.50
2019-05-07T13:34:34.128Z,99026.34
2019-05-07T13:37:07.747Z,99031.14
2019-05-07T13:39:38.135Z,99042.15
2019-05-07T13:42:08.400Z,99046.34
2019-05-07T13:44:44.664Z,99038.63
2019-05-07T13:47:27.272Z,99048.73
2019-05-07T13:49:56.252Z,99041.21
2019-05-07T13:52:25.595Z,99038.58
2019-05-07T13:54:54.737Z,99055.87
2019-05-07T13:57:23.674Z,99055.50
2019-05-07T13:59:53.229Z,99051.42
2019-05-07T14:02:29.045Z,99072.92
2019-05-07T14:04:57.685Z,99067.53
2019-05-07T14:07:32.265Z,99081.00
2019-05-07T14:10:03.911Z,99085.63
2019-05-07T14:12:33.776Z,99083.70
2019-05-07T14:15:02.914Z,99094.16
2019-05-07T14:17:32.048Z,99094.16
2019-05-07T14:20:01.873Z,99106.89
2019-05-07T14:22:31.887Z,99101.40
2019-05-07T14:25:00.674Z,99100.16
2019-05-07T14:27:29.310Z,99097.02
2019-05-07T14:30:02.500Z,99109.48
2019-05-07T14:32:42.042Z,99120.73
2019-05-07T14:35:19.084Z,99120.45
2019-05-07T14:37:49.409Z,99135.17
2019-05-07T14:40:22.297Z,99136.19
2019-05-07T14:43:12.655Z,99129.61
2019-05-07T14:45:42.080Z,99126.82
2019-05-07T14:48:12.170Z,99131.91
2019-05-07T14:50:41.983Z,99138.48
2019-05-07T14:53:12.036Z,99155.94
2019-05-07T14:55:41.810Z,99154.67
2019-05-07T14:58:12.371Z,99155.08
2019-05-07T15:00:42.753Z,99153.88
2019-05-07T15:03:14.680Z,99157.72
2019-05-07T15:05:43.420Z,99148.32
2019-05-07T15:08:14.275Z,99165.20
2019-05-07T15:10:45.599Z,99158.45
2019-05-07T15:13:14.287Z,99144.81
2019-05-07T15:15:42.932Z,99144.89
2019-05-07T15:18:15.737Z,99132.84
2019-05-07T15:20:44.132Z,99135.41
2019-05-07T15:23:17.411Z,99142.44
2019-05-07T15:25:47.258Z,99150.41
2019-05-07T15:28:16.001Z,99154.70
2019-05-07T15:30:49.093Z,99158.28
2019-05-07T15:33:17.938Z,99175.83
2019-05-07T15:35:46.586Z,99170.23
2019-05-07T15:38:17.773Z,99189.19
2019-05-07T15:40:46.419Z,99193.84
2019-05-07T15:43:15.065Z,99187.69
2019-05-07T15:45:44.840Z,99194.86
2019-05-07T15:48:13.480Z,99201.56
2019-05-07T15:50:44.740Z,99210.48
2019-05-07T15:53:15.021Z,99212.37
2019-05-07T15:55:43.609Z,99216.94
2019-05-07T15:58:12.207Z,99221.14
2019-05-07T16:00:42.520Z,99224.22
2019-05-07T16:03:13.006Z,99222.63
2019-05-07T16:05:42.447Z,99222.11
2019-05-07T16:08:13.064Z,99234.70
2019-05-07T16:10:42.707Z,99231.77
2019-05-07T16:13:13.754Z,99248.82
2019-05-07T16:15:42.665Z,99239.28
2019-05-07T16:18:13.109Z,99237.06
2019-05-07T16:20:42.878Z,99243.66
2019-05-07T16:23:15.701Z,99240.44
2019-05-07T16:25:42.677Z,99244.16
2019-05-07T16:28:12.796Z,99253.69
2019-05-07T16:30:44.317Z,99248.91
2019-05-07T16:33:13.040Z,99254.54
2019-05-07T16:35:42.757Z,99264.23
2019-05-07T16:38:14.535Z,99268.38
2019-05-07T16:40:42.937Z,99281.11
2019-05-07T16:43:12.076Z,99275.17
2019-05-07T16:45:42.433Z,99281.95
2019-05-07T16:48:11.968Z,99283.56
2019-05-07T16:50:41.904Z,99285.23
2019-05-07T16:53:29.798Z,99290.91
2019-05-07T16:55:53.062Z,99293.64
2019-05-07T16:58:27.509Z,99293.61
2019-05-07T17:01:12.275Z,99299.72
2019-05-07T17:04:02.761Z,99299.78
2019-05-07T17:06:32.247Z,99293.73
2019-05-07T17:09:05.779Z,99298.33
2019-05-07T17:11:35.693Z,99305.25
2019-05-07T17:14:08.876Z,99312.23
2019-05-07T17:16:43.588Z,99319.55
2019-05-07T17:19:15.081Z,99322.06
2019-05-07T17:21:43.657Z,99312.56
2019-05-07T17:24:12.317Z,99310.02
2019-05-07T17:26:43.740Z,99303.52
2019-05-07T17:29:12.394Z,99313.94
2019-05-07T17:31:42.449Z,99315.17
2019-05-07T17:34:11.825Z,99320.00
2019-05-07T17:36:47.195Z,99320.49
2019-05-07T17:39:15.862Z,99323.01
2019-05-07T17:41:47.550Z,99328.20
2019-05-07T17:44:16.248Z,99325.63
2019-05-07T17:46:46.234Z,99334.76
2019-05-07T17:49:17.655Z,99324.74
2019-05-07T17:51:46.279Z,99328.20
2019-05-07T17:54:18.052Z,99335.12
2019-05-07T17:56:47.662Z,99337.25
2019-05-07T17:59:21.150Z,99335.12
2019-05-07T18:01:56.144Z,99352.03
2019-05-07T18:04:27.337Z,99347.72
2019-05-07T18:07:03.144Z,99346.78
2019-05-07T18:09:32.051Z,99354.55
2019-05-07T18:12:00.702Z,99354.13
2019-05-07T18:14:29.277Z,99360.20
2019-05-07T18:17:01.999Z,99367.97
2019-05-07T18:19:33.257Z,99360.53
2019-05-07T18:22:02.610Z,99370.19
2019-05-07T18:24:35.610Z,99370.58
2019-05-07T18:27:08.872Z,99378.88
2019-05-07T18:29:42.733Z,99375.86
2019-05-07T18:32:12.414Z,99379.33
2019-05-07T18:34:46.724Z,99381.97
2019-05-07T18:37:15.320Z,99375.44
2019-05-07T18:39:44.037Z,99373.59
2019-05-07T18:42:12.856Z,99383.61
2019-05-07T18:44:44.424Z,99381.00
2019-05-07T18:47:13.047Z,99380.55
2019-05-07T18:49:42.898Z,99377.02
2019-05-07T18:52:12.929Z,99387.01
2019-05-07T18:54:42.826Z,99387.77
2019-05-07T18:57:11.699Z,99392.20
2019-05-07T18:59:42.184Z,99393.99
2019-05-07T19:02:10.752Z,99402.22
2019-05-07T19:04:39.394Z,99404.41
2019-05-07T19:07:07.982Z,99403.50
2019-05-07T19:09:36.627Z,99405.74
2019-05-07T19:12:06.343Z,99413.00
2019-05-07T19:14:34.916Z,99403.50
2019-05-07T19:17:03.646Z,99407.02
2019-05-07T19:19:33.237Z,99403.95
2019-05-07T19:22:02.208Z,99409.57
2019-05-07T19:24:42.215Z,99407.41
2019-05-07T19:27:02.190Z,99406.96
2019-05-07T19:29:32.572Z,99406.47
2019-05-07T19:32:03.170Z,99410.33
2019-05-07T19:34:32.797Z,99406.93
2019-05-07T19:37:02.616Z,99403.95
2019-05-07T19:39:32.476Z,99403.44
2019-05-07T19:42:02.536Z,99410.88
2019-05-07T19:44:34.089Z,99407.33
2019-05-07T19:47:02.642Z,99410.84
2019-05-07T19:49:34.951Z,99413.46
2019-05-07T19:52:03.582Z,99416.86
2019-05-07T19:54:36.066Z,99423.54
2019-05-07T19:57:04.887Z,99415.73
2019-05-07T19:59:33.501Z,99420.20
2019-05-07T20:02:03.852Z,99422.87
2019-05-07T20:04:32.485Z,99420.26
2019-05-07T20:07:02.855Z,99426.36
2019-05-07T20:09:34.205Z,99422.11
2019-05-07T20:12:03.159Z,99429.52
2019-05-07T20:14:33.037Z,99421.77
2019-05-07T20:17:01.967Z,99428.02
2019-05-07T20:19:33.620Z,99438.48
2019-05-07T20:22:02.319Z,99438.17
2019-05-07T20:24:32.580Z,99443.96
2019-05-07T20:27:04.085Z,99440.27
2019-05-07T20:29:32.780Z,99447.25
2019-05-07T20:32:01.433Z,99443.05
2019-05-07T20:34:32.939Z,99433.58
2019-05-07T20:37:02.034Z,99440.72
2019-05-07T20:39:32.251Z,99443.89
2019-05-07T20:42:03.163Z,99441.05
2019-05-07T20:44:32.542Z,99435.94
2019-05-07T20:47:01.798Z,99447.73
2019-05-07T20:49:32.075Z,99446.48
2019-05-07T20:52:00.904Z,99448.88
2019-05-07T20:54:43.306Z,99448.26
2019-05-07T20:57:19.213Z,99450.28
2019-05-07T20:59:47.800Z,99454.96
2019-05-07T21:02:16.376Z,99461.38
2019-05-07T21:04:44.967Z,99451.73
2019-05-07T21:07:13.947Z,99453.92
2019-05-07T21:09:45.303Z,99455.70
2019-05-07T21:12:13.939Z,99454.11
2019-05-07T21:14:44.262Z,99456.70
2019-05-07T21:17:12.898Z,99452.94
2019-05-07T21:19:42.801Z,99463.30
2019-05-07T21:22:13.036Z,99455.78
2019-05-07T21:24:42.290Z,99458.31
2019-05-07T21:27:12.206Z,99468.59
2019-05-07T21:29:42.262Z,99473.67
2019-05-07T21:32:12.369Z,99468.05
2019-05-07T21:34:42.087Z,99473.67
2019-05-07T21:37:12.598Z,99470.52
2019-05-07T21:39:42.389Z,99468.77
2019-05-07T21:42:13.973Z,99467.52
2019-05-07T21:44:43.033Z,99469.95
2019-05-07T21:47:12.673Z,99473.79
2019-05-07T21:49:43.028Z,99464.14
2019-05-07T21:52:12.651Z,99461.52
2019-05-07T21:54:45.934Z,99466.34
2019-05-07T21:57:33.033Z,99463.74
2019-05-07T22:00:22.123Z,99467.63
2019-05-07T22:02:52.729Z,99466.72
2019-05-07T22:05:22.627Z,99463.20
2019-05-07T22:07:54.202Z,99465.81
2019-05-07T22:10:22.328Z,99463.61
2019-05-07T22:12:54.647Z,99464.82
2019-05-07T22:15:22.589Z,99476.57
2019-05-07T22:17:52.098Z,99467.97
2019-05-07T22:20:22.111Z,99475.27
2019-05-07T22:22:52.144Z,99466.50
2019-05-07T22:25:22.194Z,99468.11
2019-05-07T22:27:52.922Z,99463.34
2019-05-07T22:30:23.289Z,99466.89
2019-05-07T22:32:56.392Z,99467.80
2019-05-07T22:35:30.669Z,99463.45
2019-05-07T22:37:59.194Z,99457.98
2019-05-07T22:40:27.842Z,99456.76
2019-05-07T22:42:57.700Z,99455.06
2019-05-07T22:45:26.355Z,99453.36
2019-05-07T22:47:55.079Z,99458.97
2019-05-07T22:50:25.024Z,99462.89
2019-05-07T22:52:54.428Z,99470.35
2019-05-07T22:55:23.198Z,99468.25
2019-05-07T22:57:56.368Z,99469.19
2019-05-07T23:00:26.712Z,99465.27
2019-05-07T23:02:55.286Z,99470.06
2019-05-07T23:05:25.495Z,99459.68
2019-05-07T23:07:54.073Z,99473.13
2019-05-07T23:10:22.690Z,99475.72
2019-05-07T23:12:52.398Z,99468.77
2019-05-07T23:15:22.612Z,99468.45
2019-05-07T23:17:51.368Z,99471.52
2019-05-07T23:20:24.487Z,99470.27
2019-05-07T23:22:53.056Z,99475.91
2019-05-07T23:25:24.449Z,99476.79
2019-05-07T23:27:54.522Z,99474.58
2019-05-07T23:30:23.175Z,99478.80
2019-05-07T23:32:52.788Z,99471.34
2019-05-07T23:35:22.221Z,99474.72
2019-05-07T23:37:52.920Z,99473.79
2019-05-07T23:40:28.742Z,99472.03
2019-05-07T23:43:02.885Z,99474.66
2019-05-07T23:45:31.706Z,99478.19
2019-05-07T23:48:02.678Z,99479.58
2019-05-07T23:50:32.411Z,99477.56
2019-05-07T23:53:02.237Z,99480.11
2019-05-07T23:55:31.846Z,99480.16
2019-05-07T23:58:00.575Z,99481.50
